sensor_id;sensor_type;location;lat;lon;timestamp;pressure;altitude;pressure_sealevel;temperature;humidity
71915;BME280;60387;49.994;14.660;2023-03-04T00:00:07;98025.31;;;3.82;50.54
71915;BME280;60387;49.994;14.660;2023-03-04T00:02:41;98027.47;;;3.85;51.39
71915;BME280;60387;49.994;14.660;2023-03-04T00:05:14;98020.75;;;3.82;50.45
71915;BME280;60387;49.994;14.660;2023-03-04T00:07:47;98011.09;;;3.81;50.24
71915;BME280;60387;49.994;14.660;2023-03-04T00:10:21;98014.59;;;3.82;50.17
71915;BME280;60387;49.994;14.660;2023-03-04T00:12:54;98027.44;;;3.80;50.90
71915;BME280;60387;49.994;14.660;2023-03-04T00:15:27;98020.19;;;3.80;50.41
71915;BME280;60387;49.994;14.660;2023-03-04T00:18:01;98011.91;;;3.82;50.06
71915;BME280;60387;49.994;14.660;2023-03-04T00:20:35;98019.94;;;3.82;49.90
71915;BME280;60387;49.994;14.660;2023-03-04T00:23:08;98011.91;;;3.82;50.44
71915;BME280;60387;49.994;14.660;2023-03-04T00:25:41;98016.75;;;3.85;51.44
71915;BME280;60387;49.994;14.660;2023-03-04T00:28:15;98024.47;;;3.81;51.03
71915;BME280;60387;49.994;14.660;2023-03-04T00:30:48;98017.50;;;3.80;50.18
71915;BME280;60387;49.994;14.660;2023-03-04T00:33:21;98011.34;;;3.80;50.20
71915;BME280;60387;49.994;14.660;2023-03-04T00:35:55;98000.56;;;3.75;50.52
71915;BME280;60387;49.994;14.660;2023-03-04T00:38:28;98009.72;;;3.79;50.45
71915;BME280;60387;49.994;14.660;2023-03-04T00:41:02;98004.63;;;3.77;49.96
71915;BME280;60387;49.994;14.660;2023-03-04T00:43:35;98005.69;;;3.76;50.39
71915;BME280;60387;49.994;14.660;2023-03-04T00:46:08;98003.00;;;3.76;49.92
71915;BME280;60387;49.994;14.660;2023-03-04T00:48:42;98001.41;;;3.75;50.58
71915;BME280;60387;49.994;14.660;2023-03-04T00:51:15;98000.81;;;3.73;50.74
71915;BME280;60387;49.994;14.660;2023-03-04T00:53:48;97989.53;;;3.71;50.36
71915;BME280;60387;49.994;14.660;2023-03-04T00:56:21;97993.03;;;3.72;50.96
71915;BME280;60387;49.994;14.660;2023-03-04T00:58:55;97996.28;;;3.74;50.99
71915;BME280;60387;49.994;14.660;2023-03-04T01:01:28;97994.91;;;3.71;51.36
71915;BME280;60387;49.994;14.660;2023-03-04T01:04:02;97982.50;;;3.65;51.02
71915;BME280;60387;49.994;14.660;2023-03-04T01:06:35;97987.31;;;3.63;50.86
71915;BME280;60387;49.994;14.660;2023-03-04T01:09:08;97982.19;;;3.62;50.47
71915;BME280;60387;49.994;14.660;2023-03-04T01:11:42;97996.16;;;3.64;50.68
71915;BME280;60387;49.994;14.660;2023-03-04T01:14:15;97994.03;;;3.66;50.26
71915;BME280;60387;49.994;14.660;2023-03-04T01:16:49;97971.78;;;3.65;50.84
71915;BME280;60387;49.994;14.660;2023-03-04T01:19:22;97972.63;;;3.66;50.72
71915;BME280;60387;49.994;14.660;2023-03-04T01:21:55;97975.84;;;3.68;50.65
71915;BME280;60387;49.994;14.660;2023-03-04T01:24:29;97973.16;;;3.68;50.21
71915;BME280;60387;49.994;14.660;2023-03-04T01:27:02;97964.06;;;3.69;50.48
71915;BME280;60387;49.994;14.660;2023-03-04T01:29:36;97963.81;;;3.70;50.63
71915;BME280;60387;49.994;14.660;2023-03-04T01:32:09;97953.09;;;3.70;50.60
71915;BME280;60387;49.994;14.660;2023-03-04T01:34:42;97960.31;;;3.70;50.71
71915;BME280;60387;49.994;14.660;2023-03-04T01:37:15;97953.88;;;3.66;50.56
71915;BME280;60387;49.994;14.660;2023-03-04T01:39:49;97953.09;;;3.70;49.95
71915;BME280;60387;49.994;14.660;2023-03-04T01:42:23;97948.56;;;3.71;50.46
71915;BME280;60387;49.994;14.660;2023-03-04T01:44:58;97944.84;;;3.72;50.93
71915;BME280;60387;49.994;14.660;2023-03-04T01:47:33;97945.91;;;3.71;50.58
71915;BME280;60387;49.994;14.660;2023-03-04T01:50:16;97935.66;;;3.68;50.56
71915;BME280;60387;49.994;14.660;2023-03-04T01:52:49;97941.03;;;3.68;49.94
71915;BME280;60387;49.994;14.660;2023-03-04T01:55:23;97933.81;;;3.68;50.66
71915;BME280;60387;49.994;14.660;2023-03-04T01:57:56;97921.19;;;3.64;50.48
71915;BME280;60387;49.994;14.660;2023-03-04T02:00:32;97935.13;;;3.66;50.40
71915;BME280;60387;49.994;14.660;2023-03-04T02:03:09;97928.94;;;3.65;50.33
71915;BME280;60387;49.994;14.660;2023-03-04T02:05:45;97929.75;;;3.66;50.13
71915;BME280;60387;49.994;14.660;2023-03-04T02:08:21;97927.09;;;3.66;50.29
71915;BME280;60387;49.994;14.660;2023-03-04T02:10:55;97919.81;;;3.61;50.54
71915;BME280;60387;49.994;14.660;2023-03-04T02:13:28;97917.91;;;3.62;50.19
71915;BME280;60387;49.994;14.660;2023-03-04T02:16:02;97908.03;;;3.62;50.48
71915;BME280;60387;49.994;14.660;2023-03-04T02:18:35;97908.03;;;3.62;51.23
71915;BME280;60387;49.994;14.660;2023-03-04T02:21:28;97903.97;;;3.60;50.59
71915;BME280;60387;49.994;14.660;2023-03-04T02:24:26;97895.09;;;3.54;51.61
71915;BME280;60387;49.994;14.660;2023-03-04T02:27:01;97896.41;;;3.52;50.86
71915;BME280;60387;49.994;14.660;2023-03-04T02:29:34;97887.81;;;3.50;50.48
71915;BME280;60387;49.994;14.660;2023-03-04T02:32:10;97894.28;;;3.54;50.80
71915;BME280;60387;49.994;14.660;2023-03-04T02:34:46;97887.06;;;3.54;50.67
71915;BME280;60387;49.994;14.660;2023-03-04T02:37:20;97885.69;;;3.52;51.21
71915;BME280;60387;49.994;14.660;2023-03-04T02:39:54;97881.94;;;3.53;50.69
71915;BME280;60387;49.994;14.660;2023-03-04T02:42:27;97885.69;;;3.52;50.64
71915;BME280;60387;49.994;14.660;2023-03-04T02:45:00;97886.00;;;3.55;50.53
71915;BME280;60387;49.994;14.660;2023-03-04T02:47:34;97870.75;;;3.56;50.69
71915;BME280;60387;49.994;14.660;2023-03-04T02:50:08;97879.84;;;3.55;50.28
71915;BME280;60387;49.994;14.660;2023-03-04T02:52:41;97865.88;;;3.53;50.17
71915;BME280;60387;49.994;14.660;2023-03-04T02:55:14;97869.91;;;3.55;50.55
71915;BME280;60387;49.994;14.660;2023-03-04T02:57:48;97866.47;;;3.55;50.37
71915;BME280;60387;49.994;14.660;2023-03-04T03:00:21;97865.63;;;3.54;50.11
71915;BME280;60387;49.994;14.660;2023-03-04T03:02:55;97874.50;;;3.55;50.48
71915;BME280;60387;49.994;14.660;2023-03-04T03:05:30;97864.53;;;3.50;51.25
71915;BME280;60387;49.994;14.660;2023-03-04T03:08:04;97866.84;;;3.42;51.03
71915;BME280;60387;49.994;14.660;2023-03-04T03:10:37;97869.75;;;3.40;51.14
71915;BME280;60387;49.994;14.660;2023-03-04T03:13:11;97861.44;;;3.37;50.95
71915;BME280;60387;49.994;14.660;2023-03-04T03:15:44;97866.22;;;3.35;51.01
71915;BME280;60387;49.994;14.660;2023-03-04T03:18:18;97867.84;;;3.36;50.79
71915;BME280;60387;49.994;14.660;2023-03-04T03:20:51;97861.44;;;3.37;50.34
71915;BME280;60387;49.994;14.660;2023-03-04T03:23:24;97866.81;;;3.37;50.28
71915;BME280;60387;49.994;14.660;2023-03-04T03:25:58;97860.63;;;3.36;50.73
71915;BME280;60387;49.994;14.660;2023-03-04T03:28:31;97856.88;;;3.37;50.60
71915;BME280;60387;49.994;14.660;2023-03-04T03:31:05;97856.88;;;3.37;50.35
71915;BME280;60387;49.994;14.660;2023-03-04T03:33:38;97860.63;;;3.36;50.68
71915;BME280;60387;49.994;14.660;2023-03-04T03:36:11;97854.19;;;3.32;50.85
71915;BME280;60387;49.994;14.660;2023-03-04T03:38:45;97848.22;;;3.25;50.58
71915;BME280;60387;49.994;14.660;2023-03-04T03:41:18;97841.47;;;3.23;50.60
71915;BME280;60387;49.994;14.660;2023-03-04T03:43:51;97843.84;;;3.19;50.52
71915;BME280;60387;49.994;14.660;2023-03-04T03:46:24;97852.19;;;3.23;50.13
71915;BME280;60387;49.994;14.660;2023-03-04T03:48:58;97849.44;;;3.18;50.52
71915;BME280;60387;49.994;14.660;2023-03-04T03:51:31;97840.31;;;3.14;50.50
71915;BME280;60387;49.994;14.660;2023-03-04T03:54:04;97834.66;;;3.10;50.02
71915;BME280;60387;49.994;14.660;2023-03-04T03:56:38;97839.47;;;3.08;52.01
71915;BME280;60387;49.994;14.660;2023-03-04T03:59:11;97836.47;;;3.05;51.15
71915;BME280;60387;49.994;14.660;2023-03-04T04:01:44;97840.50;;;3.08;51.32
71915;BME280;60387;49.994;14.660;2023-03-04T04:04:18;97832.22;;;3.09;51.11
71915;BME280;60387;49.994;14.660;2023-03-04T04:06:51;97842.44;;;3.12;50.81
71915;BME280;60387;49.994;14.660;2023-03-04T04:09:24;97844.06;;;3.13;50.37
71915;BME280;60387;49.994;14.660;2023-03-04T04:11:58;97834.13;;;3.13;50.41
71915;BME280;60387;49.994;14.660;2023-03-04T04:14:31;97835.75;;;3.14;50.57
71915;BME280;60387;49.994;14.660;2023-03-04T04:17:05;97836.56;;;3.15;51.38
71915;BME280;60387;49.994;14.660;2023-03-04T04:19:39;97827.44;;;3.11;51.03
71915;BME280;60387;49.994;14.660;2023-03-04T04:22:15;97829.59;;;3.14;51.29
71915;BME280;60387;49.994;14.660;2023-03-04T04:24:48;97839.50;;;3.13;51.32
71915;BME280;60387;49.994;14.660;2023-03-04T04:27:22;97844.06;;;3.13;51.85
71915;BME280;60387;49.994;14.660;2023-03-04T04:29:55;97849.66;;;3.11;51.90
71915;BME280;60387;49.994;14.660;2023-03-04T04:32:28;97847.16;;;3.05;52.38
71915;BME280;60387;49.994;14.660;2023-03-04T04:35:02;97845.78;;;3.03;51.22
71915;BME280;60387;49.994;14.660;2023-03-04T04:37:35;97838.22;;;2.95;51.43
71915;BME280;60387;49.994;14.660;2023-03-04T04:40:09;97832.56;;;2.91;50.86
71915;BME280;60387;49.994;14.660;2023-03-04T04:42:42;97838.97;;;2.90;51.26
71915;BME280;60387;49.994;14.660;2023-03-04T04:45:16;97833.53;;;2.85;51.42
71915;BME280;60387;49.994;14.660;2023-03-04T04:47:54;97832.94;;;2.78;50.76
71915;BME280;60387;49.994;14.660;2023-03-04T04:50:27;97833.94;;;2.72;50.74
71915;BME280;60387;49.994;14.660;2023-03-04T04:53:00;97837.34;;;2.68;51.01
71915;BME280;60387;49.994;14.660;2023-03-04T04:55:34;97837.78;;;2.60;50.57
71915;BME280;60387;49.994;14.660;2023-03-04T04:58:07;97831.31;;;2.56;51.07
71915;BME280;60387;49.994;14.660;2023-03-04T05:00:40;97824.00;;;2.51;52.01
71915;BME280;60387;49.994;14.660;2023-03-04T05:03:13;97834.16;;;2.49;51.70
71915;BME280;60387;49.994;14.660;2023-03-04T05:05:47;97829.53;;;2.45;52.18
71915;BME280;60387;49.994;14.660;2023-03-04T05:08:20;97828.75;;;2.44;52.19
71915;BME280;60387;49.994;14.660;2023-03-04T05:10:54;97835.41;;;2.42;51.76
71915;BME280;60387;49.994;14.660;2023-03-04T05:13:27;97849.81;;;2.41;52.49
71915;BME280;60387;49.994;14.660;2023-03-04T05:16:01;97839.91;;;2.41;51.91
71915;BME280;60387;49.994;14.660;2023-03-04T05:18:34;97836.13;;;2.37;53.03
71915;BME280;60387;49.994;14.660;2023-03-04T05:21:08;97845.25;;;2.41;53.56
71915;BME280;60387;49.994;14.660;2023-03-04T05:23:42;97849.25;;;2.39;52.59
71915;BME280;60387;49.994;14.660;2023-03-04T05:26:16;97854.34;;;2.40;52.20
71915;BME280;60387;49.994;14.660;2023-03-04T05:28:50;97850.88;;;2.40;52.77
71915;BME280;60387;49.994;14.660;2023-03-04T05:31:23;97853.56;;;2.40;52.56
71915;BME280;60387;49.994;14.660;2023-03-04T05:33:56;97847.38;;;2.39;52.65
71915;BME280;60387;49.994;14.660;2023-03-04T05:36:30;97848.44;;;2.38;53.98
71915;BME280;60387;49.994;14.660;2023-03-04T05:39:03;97851.13;;;2.38;53.03
71915;BME280;60387;49.994;14.660;2023-03-04T05:41:36;97851.13;;;2.38;53.05
71915;BME280;60387;49.994;14.660;2023-03-04T05:44:09;97848.69;;;2.37;52.42
71915;BME280;60387;49.994;14.660;2023-03-04T05:46:43;97851.28;;;2.32;52.04
71915;BME280;60387;49.994;14.660;2023-03-04T05:49:16;97850.47;;;2.31;51.76
71915;BME280;60387;49.994;14.660;2023-03-04T05:51:49;97866.19;;;2.28;52.38
71915;BME280;60387;49.994;14.660;2023-03-04T05:54:23;97864.25;;;2.23;51.85
71915;BME280;60387;49.994;14.660;2023-03-04T05:56:56;97867.97;;;2.22;51.54
71915;BME280;60387;49.994;14.660;2023-03-04T05:59:29;97863.13;;;2.19;52.02
71915;BME280;60387;49.994;14.660;2023-03-04T06:02:03;97859.09;;;2.17;51.91
71915;BME280;60387;49.994;14.660;2023-03-04T06:04:36;97879.91;;;2.15;51.95
71915;BME280;60387;49.994;14.660;2023-03-04T06:07:09;97877.13;;;2.10;51.61
71915;BME280;60387;49.994;14.660;2023-03-04T06:09:42;97872.03;;;2.08;51.79
71915;BME280;60387;49.994;14.660;2023-03-04T06:12:16;97873.66;;;2.09;51.55
71915;BME280;60387;49.994;14.660;2023-03-04T06:14:49;97879.00;;;2.09;51.83
71915;BME280;60387;49.994;14.660;2023-03-04T06:17:23;97885.47;;;2.13;51.47
71915;BME280;60387;49.994;14.660;2023-03-04T06:19:56;97888.97;;;2.14;51.41
71915;BME280;60387;49.994;14.660;2023-03-04T06:22:29;97884.41;;;2.14;52.16
71915;BME280;60387;49.994;14.660;2023-03-04T06:25:03;97881.25;;;2.17;52.13
71915;BME280;60387;49.994;14.660;2023-03-04T06:27:36;97888.25;;;2.18;52.28
71915;BME280;60387;49.994;14.660;2023-03-04T06:30:10;97888.56;;;2.22;52.39
71915;BME280;60387;49.994;14.660;2023-03-04T06:32:44;97891.22;;;2.22;52.00
71915;BME280;60387;49.994;14.660;2023-03-04T06:35:17;97897.69;;;2.26;52.38
71915;BME280;60387;49.994;14.660;2023-03-04T06:37:51;97896.97;;;2.30;52.52
71915;BME280;60387;49.994;14.660;2023-03-04T06:40:24;97905.41;;;2.39;51.96
71915;BME280;60387;49.994;14.660;2023-03-04T06:42:57;97901.16;;;2.43;51.92
71915;BME280;60387;49.994;14.660;2023-03-04T06:45:30;97902.59;;;2.50;52.15
71915;BME280;60387;49.994;14.660;2023-03-04T06:48:04;97909.66;;;2.56;52.15
71915;BME280;60387;49.994;14.660;2023-03-04T06:50:40;97899.50;;;2.58;51.64
71915;BME280;60387;49.994;14.660;2023-03-04T06:53:13;97901.72;;;2.61;51.55
71915;BME280;60387;49.994;14.660;2023-03-04T06:55:47;97906.63;;;2.69;52.13
71915;BME280;60387;49.994;14.660;2023-03-04T06:58:20;97908.56;;;2.74;52.14
71915;BME280;60387;49.994;14.660;2023-03-04T07:00:54;97908.94;;;2.82;51.57
71915;BME280;60387;49.994;14.660;2023-03-04T07:03:27;97910.13;;;2.91;52.47
71915;BME280;60387;49.994;14.660;2023-03-04T07:06:00;97908.59;;;2.95;52.12
71915;BME280;60387;49.994;14.660;2023-03-04T07:08:33;97910.25;;;3.01;52.78
71915;BME280;60387;49.994;14.660;2023-03-04T07:11:07;97911.13;;;3.06;52.37
71915;BME280;60387;49.994;14.660;2023-03-04T07:13:40;97918.16;;;3.12;52.24
71915;BME280;60387;49.994;14.660;2023-03-04T07:16:16;97921.69;;;3.18;52.20
71915;BME280;60387;49.994;14.660;2023-03-04T07:18:50;97918.59;;;3.26;52.61
71915;BME280;60387;49.994;14.660;2023-03-04T07:21:23;97916.22;;;3.29;52.46
71915;BME280;60387;49.994;14.660;2023-03-04T07:23:57;97917.59;;;3.32;52.93
71915;BME280;60387;49.994;14.660;2023-03-04T07:26:30;97921.97;;;3.38;52.90
71915;BME280;60387;49.994;14.660;2023-03-04T07:29:04;97919.84;;;3.40;52.96
71915;BME280;60387;49.994;14.660;2023-03-04T07:31:38;97915.03;;;3.42;52.91
71915;BME280;60387;49.994;14.660;2023-03-04T07:34:13;97913.28;;;3.52;52.48
71915;BME280;60387;49.994;14.660;2023-03-04T07:36:46;97911.47;;;3.58;52.71
71915;BME280;60387;49.994;14.660;2023-03-04T07:39:20;97908.03;;;3.62;52.97
71915;BME280;60387;49.994;14.660;2023-03-04T07:41:53;97912.38;;;3.68;53.29
71915;BME280;60387;49.994;14.660;2023-03-04T07:44:26;97905.72;;;3.71;52.62
71915;BME280;60387;49.994;14.660;2023-03-04T07:47:00;97908.44;;;3.76;52.80
71915;BME280;60387;49.994;14.660;2023-03-04T07:49:33;97916.00;;;3.84;53.07
71915;BME280;60387;49.994;14.660;2023-03-04T07:52:06;97910.97;;;3.87;52.59
71915;BME280;60387;49.994;14.660;2023-03-04T07:54:39;97910.75;;;3.94;52.46
71915;BME280;60387;49.994;14.660;2023-03-04T07:57:13;97910.28;;;4.02;52.01
71915;BME280;60387;49.994;14.660;2023-03-04T07:59:46;97917.06;;;4.09;51.88
71915;BME280;60387;49.994;14.660;2023-03-04T08:02:19;97914.16;;;4.16;52.55
71915;BME280;60387;49.994;14.660;2023-03-04T08:04:53;97906.97;;;4.21;52.36
71915;BME280;60387;49.994;14.660;2023-03-04T08:07:26;97906.75;;;4.28;52.82
71915;BME280;60387;49.994;14.660;2023-03-04T08:09:59;97912.69;;;4.35;52.36
71915;BME280;60387;49.994;14.660;2023-03-04T08:12:34;97908.72;;;4.42;52.82
71915;BME280;60387;49.994;14.660;2023-03-04T08:15:08;97912.28;;;4.53;52.62
71915;BME280;60387;49.994;14.660;2023-03-04T08:17:41;97911.28;;;4.64;52.70
71915;BME280;60387;49.994;14.660;2023-03-04T08:20:14;97906.31;;;4.77;52.47
71915;BME280;60387;49.994;14.660;2023-03-04T08:22:48;97907.44;;;4.91;52.04
71915;BME280;60387;49.994;14.660;2023-03-04T08:25:21;97904.53;;;5.03;52.52
71915;BME280;60387;49.994;14.660;2023-03-04T08:27:54;97910.78;;;5.18;51.74
71915;BME280;60387;49.994;14.660;2023-03-04T08:30:28;97906.53;;;5.27;51.70
71915;BME280;60387;49.994;14.660;2023-03-04T08:33:02;97909.53;;;5.36;51.71
71915;BME280;60387;49.994;14.660;2023-03-04T08:35:37;97913.84;;;5.42;51.49
71915;BME280;60387;49.994;14.660;2023-03-04T08:38:11;97912.78;;;5.48;51.24
71915;BME280;60387;49.994;14.660;2023-03-04T08:40:44;97923.00;;;5.51;51.38
71915;BME280;60387;49.994;14.660;2023-03-04T08:43:17;97918.47;;;5.56;51.09
71915;BME280;60387;49.994;14.660;2023-03-04T08:45:52;97911.19;;;5.57;50.85
71915;BME280;60387;49.994;14.660;2023-03-04T08:48:25;97908.25;;;5.58;50.91
71915;BME280;60387;49.994;14.660;2023-03-04T08:50:59;97918.19;;;5.63;50.68
71915;BME280;60387;49.994;14.660;2023-03-04T08:53:32;97920.38;;;5.71;51.02
71915;BME280;60387;49.994;14.660;2023-03-04T08:56:06;97915.03;;;5.76;50.97
71915;BME280;60387;49.994;14.660;2023-03-04T08:58:40;97912.84;;;5.73;50.68
71915;BME280;60387;49.994;14.660;2023-03-04T09:01:13;97921.72;;;5.78;50.80
71915;BME280;60387;49.994;14.660;2023-03-04T09:03:47;97917.72;;;5.81;50.77
71915;BME280;60387;49.994;14.660;2023-03-04T09:06:20;97922.06;;;5.87;50.58
71915;BME280;60387;49.994;14.660;2023-03-04T09:08:53;97918.00;;;5.84;50.71
71915;BME280;60387;49.994;14.660;2023-03-04T09:11:27;97925.22;;;5.79;50.34
71915;BME280;60387;49.994;14.660;2023-03-04T09:14:00;97932.78;;;5.82;50.51
71915;BME280;60387;49.994;14.660;2023-03-04T09:16:33;97920.94;;;5.83;50.17
71915;BME280;60387;49.994;14.660;2023-03-04T09:19:07;97919.34;;;5.92;50.64
71915;BME280;60387;49.994;14.660;2023-03-04T09:21:40;97919.94;;;6.04;50.66
71915;BME280;60387;49.994;14.660;2023-03-04T09:24:13;97921.00;;;6.13;50.55
71915;BME280;60387;49.994;14.660;2023-03-04T09:26:51;97923.69;;;6.18;50.24
71915;BME280;60387;49.994;14.660;2023-03-04T09:29:24;97915.63;;;6.22;49.89
71915;BME280;60387;49.994;14.660;2023-03-04T09:31:58;97919.41;;;6.27;49.99
71915;BME280;60387;49.994;14.660;2023-03-04T09:34:31;97918.59;;;6.26;50.01
71915;BME280;60387;49.994;14.660;2023-03-04T09:37:04;97919.41;;;6.31;49.97
71915;BME280;60387;49.994;14.660;2023-03-04T09:39:37;97910.25;;;6.32;49.66
71915;BME280;60387;49.994;14.660;2023-03-04T09:42:22;97909.72;;;6.35;49.83
71915;BME280;60387;49.994;14.660;2023-03-04T09:44:57;97909.72;;;6.35;49.87
71915;BME280;60387;49.994;14.660;2023-03-04T09:47:33;97910.25;;;6.42;49.82
71915;BME280;60387;49.994;14.660;2023-03-04T09:50:11;97910.25;;;6.47;49.80
71915;BME280;60387;49.994;14.660;2023-03-04T09:55:36;97895.16;;;6.66;49.70
71915;BME280;60387;49.994;14.660;2023-03-04T10:01:00;97892.41;;;6.91;49.70
71915;BME280;60387;49.994;14.660;2023-03-04T10:06:26;97895.84;;;7.07;49.17
71915;BME280;60387;49.994;14.660;2023-03-04T10:12:11;97889.38;;;7.13;48.81
71915;BME280;60387;49.994;14.660;2023-03-04T10:14:48;97888.59;;;7.12;48.43
71915;BME280;60387;49.994;14.660;2023-03-04T10:17:42;97876.47;;;7.10;48.46
71915;BME280;60387;49.994;14.660;2023-03-04T10:20:21;97874.03;;;7.13;48.79
71915;BME280;60387;49.994;14.660;2023-03-04T10:23:07;97844.75;;;6.92;48.88
71915;BME280;60387;49.994;14.660;2023-03-04T10:25:43;97875.09;;;7.17;48.41
71915;BME280;60387;49.994;14.660;2023-03-04T10:28:25;97876.16;;;7.21;48.61
71915;BME280;60387;49.994;14.660;2023-03-04T10:33:42;97864.81;;;7.29;48.20
71915;BME280;60387;49.994;14.660;2023-03-04T10:39:18;97850.22;;;7.35;48.15
71915;BME280;60387;49.994;14.660;2023-03-04T10:44:41;97850.19;;;7.40;47.81
71915;BME280;60387;49.994;14.660;2023-03-04T10:47:15;97855.53;;;7.45;48.34
71915;BME280;60387;49.994;14.660;2023-03-04T10:49:54;97847.19;;;7.52;47.54
71915;BME280;60387;49.994;14.660;2023-03-04T10:52:35;97849.56;;;7.53;47.78
71915;BME280;60387;49.994;14.660;2023-03-04T10:55:19;97840.94;;;7.56;48.00
71915;BME280;60387;49.994;14.660;2023-03-04T10:57:56;97834.47;;;7.57;47.55
71915;BME280;60387;49.994;14.660;2023-03-04T11:00:38;97833.38;;;7.63;47.82
71915;BME280;60387;49.994;14.660;2023-03-04T11:03:34;97830.66;;;7.63;47.43
71915;BME280;60387;49.994;14.660;2023-03-04T11:06:21;97826.31;;;7.67;47.02
71915;BME280;60387;49.994;14.660;2023-03-04T11:08:57;97821.44;;;7.69;47.67
71915;BME280;60387;49.994;14.660;2023-03-04T11:11:40;97826.81;;;7.74;47.31
71915;BME280;60387;49.994;14.660;2023-03-04T11:14:27;97833.00;;;7.75;46.98
71915;BME280;60387;49.994;14.660;2023-03-04T11:17:26;97822.44;;;7.78;47.34
71915;BME280;60387;49.994;14.660;2023-03-04T11:20:27;97813.25;;;7.84;47.16
71915;BME280;60387;49.994;14.660;2023-03-04T11:23:05;97802.44;;;7.89;47.40
71915;BME280;60387;49.994;14.660;2023-03-04T11:25:46;97795.84;;;8.05;46.48
71915;BME280;60387;49.994;14.660;2023-03-04T11:28:26;97802.78;;;8.11;46.80
71915;BME280;60387;49.994;14.660;2023-03-04T11:31:09;97798.66;;;8.24;47.03
71915;BME280;60387;49.994;14.660;2023-03-04T11:45:16;97796.97;;;8.56;45.96
71915;BME280;60387;49.994;14.660;2023-03-04T11:51:23;97782.09;;;8.59;45.75
71915;BME280;60387;49.994;14.660;2023-03-04T11:54:19;97775.03;;;8.63;46.18
71915;BME280;60387;49.994;14.660;2023-03-04T11:57:02;97772.38;;;8.58;45.91
71915;BME280;60387;49.994;14.660;2023-03-04T11:59:45;97772.84;;;8.65;46.35
71915;BME280;60387;49.994;14.660;2023-03-04T12:02:29;97754.69;;;8.70;45.52
71915;BME280;60387;49.994;14.660;2023-03-04T12:05:18;97757.84;;;8.77;45.89
71915;BME280;60387;49.994;14.660;2023-03-04T12:07:58;97757.81;;;8.82;45.11
71915;BME280;60387;49.994;14.660;2023-03-04T12:21:36;97745.91;;;8.83;44.69
71915;BME280;60387;49.994;14.660;2023-03-04T12:37:04;97746.97;;;9.06;44.24
71915;BME280;60387;49.994;14.660;2023-03-04T12:39:40;97747.53;;;9.03;44.89
71915;BME280;60387;49.994;14.660;2023-03-04T12:48:01;97735.94;;;9.02;44.85
71915;BME280;60387;49.994;14.660;2023-03-04T12:53:17;97737.75;;;9.07;44.69
71915;BME280;60387;49.994;14.660;2023-03-04T12:55:54;97724.53;;;9.05;44.46
71915;BME280;60387;49.994;14.660;2023-03-04T12:58:32;97731.03;;;9.04;44.62
71915;BME280;60387;49.994;14.660;2023-03-04T13:09:17;97724.53;;;9.05;44.29
71915;BME280;60387;49.994;14.660;2023-03-04T13:12:14;97719.72;;;9.02;44.21
71915;BME280;60387;49.994;14.660;2023-03-04T13:15:15;97724.91;;;8.99;44.72
71915;BME280;60387;49.994;14.660;2023-03-04T13:17:56;97727.31;;;9.00;44.52
71915;BME280;60387;49.994;14.660;2023-03-04T13:23:20;97722.69;;;9.01;44.83
71915;BME280;60387;49.994;14.660;2023-03-04T13:28:31;97713.50;;;9.02;44.30
71915;BME280;60387;49.994;14.660;2023-03-04T13:31:16;97706.25;;;8.97;44.87
71915;BME280;60387;49.994;14.660;2023-03-04T13:33:53;97705.47;;;8.97;44.65
71915;BME280;60387;49.994;14.660;2023-03-04T13:36:50;97710.06;;;8.96;44.37
71915;BME280;60387;49.994;14.660;2023-03-04T13:39:26;97719.03;;;8.92;44.94
71915;BME280;60387;49.994;14.660;2023-03-04T13:42:00;97711.22;;;8.90;44.92
71915;BME280;60387;49.994;14.660;2023-03-04T13:47:19;97711.59;;;8.84;44.69
71915;BME280;60387;49.994;14.660;2023-03-04T13:50:27;97707.78;;;8.85;44.66
71915;BME280;60387;49.994;14.660;2023-03-04T13:56:04;97700.56;;;8.80;45.05
71915;BME280;60387;49.994;14.660;2023-03-04T13:58:40;97706.78;;;8.81;44.92
71915;BME280;60387;49.994;14.660;2023-03-04T14:01:24;97694.66;;;8.78;45.20
71915;BME280;60387;49.994;14.660;2023-03-04T14:04:00;97692.44;;;8.80;44.99
71915;BME280;60387;49.994;14.660;2023-03-04T14:06:33;97687.34;;;8.79;45.01
71915;BME280;60387;49.994;14.660;2023-03-04T14:09:14;97689.75;;;8.80;45.13
71915;BME280;60387;49.994;14.660;2023-03-04T14:11:49;97690.28;;;8.82;45.06
71915;BME280;60387;49.994;14.660;2023-03-04T14:14:38;97689.19;;;8.83;45.10
71915;BME280;60387;49.994;14.660;2023-03-04T14:17:21;97685.63;;;8.88;44.94
71915;BME280;60387;49.994;14.660;2023-03-04T14:19:56;97682.91;;;8.88;45.52
71915;BME280;60387;49.994;14.660;2023-03-04T14:22:32;97687.22;;;8.89;45.17
71915;BME280;60387;49.994;14.660;2023-03-04T14:25:22;97685.31;;;8.89;44.88
71915;BME280;60387;49.994;14.660;2023-03-04T14:28:09;97685.31;;;8.89;44.94
71915;BME280;60387;49.994;14.660;2023-03-04T14:30:54;97682.91;;;8.88;45.38
71915;BME280;60387;49.994;14.660;2023-03-04T14:33:29;97680.22;;;8.88;45.40
71915;BME280;60387;49.994;14.660;2023-03-04T14:36:03;97687.22;;;8.89;45.42
71915;BME280;60387;49.994;14.660;2023-03-04T14:38:37;97688.81;;;8.90;45.12
71915;BME280;60387;49.994;14.660;2023-03-04T14:41:16;97686.72;;;8.87;45.06
71915;BME280;60387;49.994;14.660;2023-03-04T14:46:39;97684.34;;;8.80;45.23
71915;BME280;60387;49.994;14.660;2023-03-04T14:49:15;97680.84;;;8.80;45.22
71915;BME280;60387;49.994;14.660;2023-03-04T14:51:50;97674.63;;;8.79;45.12
71915;BME280;60387;49.994;14.660;2023-03-04T14:54:39;97680.03;;;8.79;45.28
71915;BME280;60387;49.994;14.660;2023-03-04T14:57:23;97673.63;;;8.75;45.46
71915;BME280;60387;49.994;14.660;2023-03-04T15:00:13;97670.94;;;8.75;45.48
71915;BME280;60387;49.994;14.660;2023-03-04T15:02:49;97666.03;;;8.77;45.48
71915;BME280;60387;49.994;14.660;2023-03-04T15:08:02;97669.84;;;8.76;45.67
71915;BME280;60387;49.994;14.660;2023-03-04T15:10:37;97670.63;;;8.77;45.41
71915;BME280;60387;49.994;14.660;2023-03-04T15:13:10;97669.31;;;8.74;45.25
71915;BME280;60387;49.994;14.660;2023-03-04T15:15:45;97669.31;;;8.74;45.47